sensor_id;sensor_type;location;lat;lon;timestamp;P1;durP1;ratioP1;P2;durP2;ratioP2
12110;SDS011;6119;52.372;8.990;2022-08-21T00:02:15;4.20;;;2.50;;
12110;SDS011;6119;52.372;8.990;2022-08-21T00:05:04;3.70;;;2.80;;
12110;SDS011;6119;52.372;8.990;2022-08-21T00:07:51;6.23;;;2.40;;
12110;SDS011;6119;52.372;8.990;2022-08-21T00:10:38;4.97;;;3.03;;
12110;SDS011;6119;52.372;8.990;2022-08-21T00:13:24;4.87;;;2.93;;
12110;SDS011;6119;52.372;8.990;2022-08-21T00:16:12;5.27;;;3.20;;
12110;SDS011;6119;52.372;8.990;2022-08-21T00:18:59;4.20;;;3.10;;
12110;SDS011;6119;52.372;8.990;2022-08-21T00:21:46;5.73;;;3.10;;
12110;SDS011;6119;52.372;8.990;2022-08-21T00:24:33;3.53;;;3.17;;
12110;SDS011;6119;52.372;8.990;2022-08-21T00:27:19;4.87;;;3.27;;
12110;SDS011;6119;52.372;8.990;2022-08-21T00:30:07;6.90;;;3.80;;
12110;SDS011;6119;52.372;8.990;2022-08-21T00:33:08;5.70;;;3.53;;
12110;SDS011;6119;52.372;8.990;2022-08-21T00:35:54;5.63;;;3.90;;
12110;SDS011;6119;52.372;8.990;2022-08-21T00:38:41;5.17;;;3.13;;
12110;SDS011;6119;52.372;8.990;2022-08-21T00:41:28;4.00;;;2.80;;
12110;SDS011;6119;52.372;8.990;2022-08-21T00:44:22;4.43;;;3.00;;
12110;SDS011;6119;52.372;8.990;2022-08-21T00:47:09;7.97;;;3.10;;
12110;SDS011;6119;52.372;8.990;2022-08-21T00:49:58;3.43;;;2.57;;
12110;SDS011;6119;52.372;8.990;2022-08-21T00:52:45;4.97;;;3.17;;
12110;SDS011;6119;52.372;8.990;2022-08-21T00:55:32;4.50;;;2.67;;
12110;SDS011;6119;52.372;8.990;2022-08-21T00:58:20;5.63;;;2.73;;
12110;SDS011;6119;52.372;8.990;2022-08-21T01:01:07;5.80;;;3.03;;
12110;SDS011;6119;52.372;8.990;2022-08-21T01:03:55;4.73;;;3.10;;
12110;SDS011;6119;52.372;8.990;2022-08-21T01:06:43;5.43;;;2.93;;
12110;SDS011;6119;52.372;8.990;2022-08-21T01:09:29;6.97;;;3.00;;
12110;SDS011;6119;52.372;8.990;2022-08-21T01:12:17;4.83;;;2.73;;
12110;SDS011;6119;52.372;8.990;2022-08-21T01:15:05;3.27;;;2.60;;
12110;SDS011;6119;52.372;8.990;2022-08-21T01:17:53;6.63;;;2.53;;
12110;SDS011;6119;52.372;8.990;2022-08-21T01:20:41;4.53;;;2.73;;
12110;SDS011;6119;52.372;8.990;2022-08-21T01:23:31;4.43;;;2.70;;
12110;SDS011;6119;52.372;8.990;2022-08-21T01:26:20;3.80;;;3.10;;
12110;SDS011;6119;52.372;8.990;2022-08-21T01:29:20;3.73;;;2.63;;
12110;SDS011;6119;52.372;8.990;2022-08-21T01:32:15;6.77;;;3.00;;
12110;SDS011;6119;52.372;8.990;2022-08-21T01:35:03;4.70;;;2.60;;
12110;SDS011;6119;52.372;8.990;2022-08-21T01:37:51;6.70;;;2.43;;
12110;SDS011;6119;52.372;8.990;2022-08-21T01:40:39;3.47;;;2.73;;
12110;SDS011;6119;52.372;8.990;2022-08-21T01:43:25;6.57;;;3.00;;
12110;SDS011;6119;52.372;8.990;2022-08-21T01:46:23;4.33;;;2.63;;
12110;SDS011;6119;52.372;8.990;2022-08-21T01:49:10;9.23;;;3.13;;
12110;SDS011;6119;52.372;8.990;2022-08-21T01:51:56;5.23;;;2.97;;
12110;SDS011;6119;52.372;8.990;2022-08-21T01:54:42;5.33;;;2.90;;
12110;SDS011;6119;52.372;8.990;2022-08-21T01:57:37;10.10;;;2.93;;
12110;SDS011;6119;52.372;8.990;2022-08-21T02:00:24;3.07;;;2.77;;
12110;SDS011;6119;52.372;8.990;2022-08-21T02:03:12;5.07;;;2.63;;
12110;SDS011;6119;52.372;8.990;2022-08-21T02:06:12;7.10;;;3.07;;
12110;SDS011;6119;52.372;8.990;2022-08-21T02:09:02;5.13;;;3.10;;
12110;SDS011;6119;52.372;8.990;2022-08-21T02:11:49;5.17;;;3.27;;
12110;SDS011;6119;52.372;8.990;2022-08-21T02:14:37;4.60;;;2.40;;
12110;SDS011;6119;52.372;8.990;2022-08-21T02:17:24;4.47;;;2.50;;
12110;SDS011;6119;52.372;8.990;2022-08-21T02:20:11;8.93;;;2.93;;
12110;SDS011;6119;52.372;8.990;2022-08-21T02:23:02;6.57;;;2.97;;
12110;SDS011;6119;52.372;8.990;2022-08-21T02:25:49;3.60;;;2.70;;
12110;SDS011;6119;52.372;8.990;2022-08-21T02:28:36;2.97;;;2.67;;
12110;SDS011;6119;52.372;8.990;2022-08-21T02:31:25;7.53;;;2.87;;
12110;SDS011;6119;52.372;8.990;2022-08-21T02:34:12;5.20;;;2.60;;
12110;SDS011;6119;52.372;8.990;2022-08-21T02:36:58;4.83;;;2.90;;
12110;SDS011;6119;52.372;8.990;2022-08-21T02:39:45;7.13;;;2.90;;
12110;SDS011;6119;52.372;8.990;2022-08-21T02:42:32;5.63;;;2.90;;
12110;SDS011;6119;52.372;8.990;2022-08-21T02:45:18;3.77;;;2.37;;
12110;SDS011;6119;52.372;8.990;2022-08-21T02:48:07;6.20;;;2.70;;
12110;SDS011;6119;52.372;8.990;2022-08-21T02:50:56;5.77;;;2.70;;
12110;SDS011;6119;52.372;8.990;2022-08-21T02:53:44;5.43;;;2.97;;
12110;SDS011;6119;52.372;8.990;2022-08-21T02:56:32;5.67;;;2.70;;
12110;SDS011;6119;52.372;8.990;2022-08-21T02:59:19;3.10;;;2.63;;
12110;SDS011;6119;52.372;8.990;2022-08-21T03:02:05;6.43;;;3.40;;
12110;SDS011;6119;52.372;8.990;2022-08-21T03:04:54;5.43;;;3.10;;
12110;SDS011;6119;52.372;8.990;2022-08-21T03:07:40;4.23;;;2.80;;
12110;SDS011;6119;52.372;8.990;2022-08-21T03:10:28;4.47;;;2.87;;
12110;SDS011;6119;52.372;8.990;2022-08-21T03:13:16;5.07;;;3.20;;
12110;SDS011;6119;52.372;8.990;2022-08-21T03:16:05;7.10;;;3.10;;
12110;SDS011;6119;52.372;8.990;2022-08-21T03:18:53;3.07;;;2.43;;
12110;SDS011;6119;52.372;8.990;2022-08-21T03:21:41;6.63;;;2.93;;
12110;SDS011;6119;52.372;8.990;2022-08-21T03:24:28;5.17;;;3.00;;
12110;SDS011;6119;52.372;8.990;2022-08-21T03:27:16;4.07;;;2.93;;
12110;SDS011;6119;52.372;8.990;2022-08-21T03:30:06;6.30;;;3.00;;
12110;SDS011;6119;52.372;8.990;2022-08-21T03:32:54;5.70;;;3.70;;
12110;SDS011;6119;52.372;8.990;2022-08-21T03:35:41;7.50;;;3.10;;
12110;SDS011;6119;52.372;8.990;2022-08-21T03:38:30;4.37;;;2.47;;
12110;SDS011;6119;52.372;8.990;2022-08-21T03:41:18;4.53;;;2.50;;
12110;SDS011;6119;52.372;8.990;2022-08-21T03:44:05;3.53;;;2.53;;
12110;SDS011;6119;52.372;8.990;2022-08-21T03:46:51;7.33;;;3.07;;
12110;SDS011;6119;52.372;8.990;2022-08-21T03:49:37;7.43;;;3.00;;
12110;SDS011;6119;52.372;8.990;2022-08-21T03:52:24;8.50;;;3.53;;
12110;SDS011;6119;52.372;8.990;2022-08-21T03:55:12;3.23;;;2.43;;
12110;SDS011;6119;52.372;8.990;2022-08-21T03:57:59;4.50;;;2.97;;
12110;SDS011;6119;52.372;8.990;2022-08-21T04:01:01;5.70;;;2.90;;
12110;SDS011;6119;52.372;8.990;2022-08-21T04:03:49;4.97;;;3.00;;
12110;SDS011;6119;52.372;8.990;2022-08-21T04:06:35;6.67;;;3.40;;
12110;SDS011;6119;52.372;8.990;2022-08-21T04:09:22;6.60;;;3.17;;
12110;SDS011;6119;52.372;8.990;2022-08-21T04:12:11;6.80;;;3.47;;
12110;SDS011;6119;52.372;8.990;2022-08-21T04:14:58;8.77;;;3.03;;
12110;SDS011;6119;52.372;8.990;2022-08-21T04:17:46;5.10;;;3.07;;
12110;SDS011;6119;52.372;8.990;2022-08-21T04:20:33;7.73;;;3.60;;
12110;SDS011;6119;52.372;8.990;2022-08-21T04:23:19;8.17;;;3.70;;
12110;SDS011;6119;52.372;8.990;2022-08-21T04:26:09;6.67;;;2.70;;
12110;SDS011;6119;52.372;8.990;2022-08-21T04:28:56;6.60;;;3.33;;
12110;SDS011;6119;52.372;8.990;2022-08-21T04:31:43;6.33;;;3.27;;
12110;SDS011;6119;52.372;8.990;2022-08-21T04:34:29;8.23;;;3.43;;
12110;SDS011;6119;52.372;8.990;2022-08-21T04:37:16;8.27;;;3.80;;
12110;SDS011;6119;52.372;8.990;2022-08-21T04:40:02;5.33;;;3.37;;
12110;SDS011;6119;52.372;8.990;2022-08-21T04:42:51;8.93;;;3.97;;
12110;SDS011;6119;52.372;8.990;2022-08-21T04:45:41;5.67;;;3.27;;
12110;SDS011;6119;52.372;8.990;2022-08-21T04:48:29;4.97;;;3.33;;
12110;SDS011;6119;52.372;8.990;2022-08-21T04:51:18;6.23;;;3.53;;
12110;SDS011;6119;52.372;8.990;2022-08-21T04:54:12;7.93;;;3.27;;
12110;SDS011;6119;52.372;8.990;2022-08-21T04:57:04;5.77;;;3.40;;
12110;SDS011;6119;52.372;8.990;2022-08-21T04:59:55;5.33;;;3.80;;
12110;SDS011;6119;52.372;8.990;2022-08-21T05:02:44;6.00;;;3.57;;
12110;SDS011;6119;52.372;8.990;2022-08-21T05:05:32;8.73;;;3.60;;
12110;SDS011;6119;52.372;8.990;2022-08-21T05:08:19;6.77;;;4.30;;
12110;SDS011;6119;52.372;8.990;2022-08-21T05:11:08;7.40;;;4.30;;
12110;SDS011;6119;52.372;8.990;2022-08-21T05:13:55;6.83;;;3.90;;
12110;SDS011;6119;52.372;8.990;2022-08-21T05:16:42;11.20;;;4.20;;
12110;SDS011;6119;52.372;8.990;2022-08-21T05:19:30;9.50;;;4.13;;
12110;SDS011;6119;52.372;8.990;2022-08-21T05:22:20;9.63;;;4.23;;
12110;SDS011;6119;52.372;8.990;2022-08-21T05:25:09;7.40;;;3.63;;
12110;SDS011;6119;52.372;8.990;2022-08-21T05:27:56;6.43;;;3.73;;
12110;SDS011;6119;52.372;8.990;2022-08-21T05:30:44;7.30;;;4.30;;
12110;SDS011;6119;52.372;8.990;2022-08-21T05:33:31;10.60;;;4.30;;
12110;SDS011;6119;52.372;8.990;2022-08-21T05:36:21;6.33;;;4.30;;
12110;SDS011;6119;52.372;8.990;2022-08-21T05:39:08;6.60;;;4.23;;
12110;SDS011;6119;52.372;8.990;2022-08-21T05:41:54;9.73;;;4.93;;
12110;SDS011;6119;52.372;8.990;2022-08-21T05:44:41;11.50;;;4.93;;
12110;SDS011;6119;52.372;8.990;2022-08-21T05:47:29;9.70;;;4.80;;
12110;SDS011;6119;52.372;8.990;2022-08-21T05:50:15;10.63;;;5.40;;
12110;SDS011;6119;52.372;8.990;2022-08-21T05:53:03;9.80;;;5.27;;
12110;SDS011;6119;52.372;8.990;2022-08-21T05:55:51;9.57;;;5.37;;
12110;SDS011;6119;52.372;8.990;2022-08-21T05:58:38;8.80;;;4.83;;
12110;SDS011;6119;52.372;8.990;2022-08-21T06:01:25;11.53;;;5.90;;
12110;SDS011;6119;52.372;8.990;2022-08-21T06:04:15;10.13;;;5.67;;
12110;SDS011;6119;52.372;8.990;2022-08-21T06:07:02;10.77;;;5.40;;
12110;SDS011;6119;52.372;8.990;2022-08-21T06:09:50;7.80;;;5.67;;
12110;SDS011;6119;52.372;8.990;2022-08-21T06:12:37;13.60;;;5.30;;
12110;SDS011;6119;52.372;8.990;2022-08-21T06:15:26;12.87;;;6.70;;
12110;SDS011;6119;52.372;8.990;2022-08-21T06:18:12;12.43;;;5.77;;
12110;SDS011;6119;52.372;8.990;2022-08-21T06:21:00;13.97;;;5.80;;
12110;SDS011;6119;52.372;8.990;2022-08-21T06:23:47;8.07;;;5.93;;
12110;SDS011;6119;52.372;8.990;2022-08-21T06:26:34;14.40;;;6.53;;
12110;SDS011;6119;52.372;8.990;2022-08-21T06:29:21;10.07;;;6.20;;
12110;SDS011;6119;52.372;8.990;2022-08-21T06:32:10;8.77;;;6.20;;
12110;SDS011;6119;52.372;8.990;2022-08-21T06:34:59;12.73;;;6.57;;
12110;SDS011;6119;52.372;8.990;2022-08-21T06:37:46;12.70;;;6.10;;
12110;SDS011;6119;52.372;8.990;2022-08-21T06:40:32;11.27;;;5.83;;
12110;SDS011;6119;52.372;8.990;2022-08-21T06:43:28;8.73;;;5.77;;
12110;SDS011;6119;52.372;8.990;2022-08-21T06:46:24;8.60;;;5.17;;
12110;SDS011;6119;52.372;8.990;2022-08-21T06:49:12;9.33;;;5.17;;
12110;SDS011;6119;52.372;8.990;2022-08-21T06:52:07;12.00;;;5.33;;
12110;SDS011;6119;52.372;8.990;2022-08-21T06:54:55;9.03;;;4.60;;
12110;SDS011;6119;52.372;8.990;2022-08-21T06:57:41;10.50;;;4.73;;
12110;SDS011;6119;52.372;8.990;2022-08-21T07:00:39;6.70;;;3.77;;
12110;SDS011;6119;52.372;8.990;2022-08-21T07:03:29;5.23;;;3.30;;
12110;SDS011;6119;52.372;8.990;2022-08-21T07:06:17;7.07;;;3.30;;
12110;SDS011;6119;52.372;8.990;2022-08-21T07:09:03;7.87;;;3.70;;
12110;SDS011;6119;52.372;8.990;2022-08-21T07:11:51;8.00;;;3.40;;
12110;SDS011;6119;52.372;8.990;2022-08-21T07:14:39;6.23;;;3.10;;
12110;SDS011;6119;52.372;8.990;2022-08-21T07:17:28;5.07;;;2.70;;
12110;SDS011;6119;52.372;8.990;2022-08-21T07:20:14;5.90;;;2.67;;
12110;SDS011;6119;52.372;8.990;2022-08-21T07:23:02;5.27;;;2.63;;
12110;SDS011;6119;52.372;8.990;2022-08-21T07:25:53;4.93;;;2.33;;
12110;SDS011;6119;52.372;8.990;2022-08-21T07:28:40;4.23;;;2.53;;
12110;SDS011;6119;52.372;8.990;2022-08-21T07:31:27;2.67;;;2.00;;
12110;SDS011;6119;52.372;8.990;2022-08-21T07:34:15;3.57;;;2.23;;
12110;SDS011;6119;52.372;8.990;2022-08-21T07:37:02;4.57;;;1.90;;
12110;SDS011;6119;52.372;8.990;2022-08-21T07:39:53;6.43;;;2.50;;
12110;SDS011;6119;52.372;8.990;2022-08-21T07:42:41;7.13;;;2.27;;
12110;SDS011;6119;52.372;8.990;2022-08-21T07:45:28;5.10;;;2.30;;
12110;SDS011;6119;52.372;8.990;2022-08-21T07:48:15;4.37;;;2.40;;
12110;SDS011;6119;52.372;8.990;2022-08-21T07:51:05;6.63;;;3.27;;
12110;SDS011;6119;52.372;8.990;2022-08-21T07:53:53;10.33;;;2.60;;
12110;SDS011;6119;52.372;8.990;2022-08-21T07:56:41;9.13;;;2.60;;
12110;SDS011;6119;52.372;8.990;2022-08-21T07:59:27;5.77;;;2.27;;
12110;SDS011;6119;52.372;8.990;2022-08-21T08:02:21;5.73;;;2.10;;
12110;SDS011;6119;52.372;8.990;2022-08-21T08:05:09;6.77;;;2.60;;
12110;SDS011;6119;52.372;8.990;2022-08-21T08:07:58;8.23;;;2.77;;
12110;SDS011;6119;52.372;8.990;2022-08-21T08:10:44;4.10;;;2.33;;
12110;SDS011;6119;52.372;8.990;2022-08-21T08:13:37;3.90;;;2.33;;
12110;SDS011;6119;52.372;8.990;2022-08-21T08:16:24;9.40;;;2.97;;
12110;SDS011;6119;52.372;8.990;2022-08-21T08:19:11;7.80;;;2.53;;
12110;SDS011;6119;52.372;8.990;2022-08-21T08:21:57;9.37;;;2.83;;
12110;SDS011;6119;52.372;8.990;2022-08-21T08:24:45;7.13;;;2.90;;
12110;SDS011;6119;52.372;8.990;2022-08-21T08:27:32;9.23;;;2.80;;
12110;SDS011;6119;52.372;8.990;2022-08-21T08:30:19;9.53;;;3.10;;
12110;SDS011;6119;52.372;8.990;2022-08-21T08:33:08;5.83;;;2.43;;
12110;SDS011;6119;52.372;8.990;2022-08-21T08:35:54;7.30;;;2.50;;
12110;SDS011;6119;52.372;8.990;2022-08-21T08:38:41;4.30;;;2.23;;
12110;SDS011;6119;52.372;8.990;2022-08-21T08:41:29;5.33;;;2.60;;
12110;SDS011;6119;52.372;8.990;2022-08-21T08:44:18;6.40;;;1.87;;
12110;SDS011;6119;52.372;8.990;2022-08-21T08:47:05;9.53;;;2.53;;
12110;SDS011;6119;52.372;8.990;2022-08-21T08:49:53;7.13;;;2.77;;
12110;SDS011;6119;52.372;8.990;2022-08-21T08:52:47;7.43;;;2.20;;
12110;SDS011;6119;52.372;8.990;2022-08-21T08:55:38;7.33;;;2.37;;
12110;SDS011;6119;52.372;8.990;2022-08-21T08:58:29;6.80;;;2.20;;
12110;SDS011;6119;52.372;8.990;2022-08-21T09:01:18;7.70;;;2.63;;
12110;SDS011;6119;52.372;8.990;2022-08-21T09:04:06;10.67;;;2.67;;
12110;SDS011;6119;52.372;8.990;2022-08-21T09:06:55;9.83;;;3.40;;
12110;SDS011;6119;52.372;8.990;2022-08-21T09:09:53;9.40;;;2.00;;
12110;SDS011;6119;52.372;8.990;2022-08-21T09:12:56;6.07;;;2.10;;
12110;SDS011;6119;52.372;8.990;2022-08-21T09:15:56;4.17;;;2.20;;
12110;SDS011;6119;52.372;8.990;2022-08-21T09:18:51;6.17;;;1.93;;
12110;SDS011;6119;52.372;8.990;2022-08-21T09:21:51;7.53;;;2.13;;
12110;SDS011;6119;52.372;8.990;2022-08-21T09:24:53;11.30;;;2.33;;
12110;SDS011;6119;52.372;8.990;2022-08-21T09:27:48;9.07;;;1.80;;
12110;SDS011;6119;52.372;8.990;2022-08-21T09:30:35;4.77;;;1.60;;
12110;SDS011;6119;52.372;8.990;2022-08-21T09:33:23;7.20;;;2.17;;
12110;SDS011;6119;52.372;8.990;2022-08-21T09:36:09;3.90;;;1.80;;
12110;SDS011;6119;52.372;8.990;2022-08-21T09:38:56;4.50;;;2.20;;
12110;SDS011;6119;52.372;8.990;2022-08-21T09:41:42;6.83;;;2.47;;
12110;SDS011;6119;52.372;8.990;2022-08-21T09:44:30;6.07;;;2.13;;
12110;SDS011;6119;52.372;8.990;2022-08-21T09:47:21;7.63;;;2.07;;
12110;SDS011;6119;52.372;8.990;2022-08-21T09:50:15;3.57;;;1.97;;
12110;SDS011;6119;52.372;8.990;2022-08-21T09:53:02;8.33;;;2.23;;
12110;SDS011;6119;52.372;8.990;2022-08-21T09:55:51;8.40;;;2.43;;
12110;SDS011;6119;52.372;8.990;2022-08-21T09:58:58;5.17;;;2.20;;
12110;SDS011;6119;52.372;8.990;2022-08-21T10:01:45;6.57;;;2.07;;
12110;SDS011;6119;52.372;8.990;2022-08-21T10:04:34;5.23;;;2.30;;
12110;SDS011;6119;52.372;8.990;2022-08-21T10:07:23;7.87;;;2.67;;
12110;SDS011;6119;52.372;8.990;2022-08-21T10:10:14;2.77;;;1.83;;
12110;SDS011;6119;52.372;8.990;2022-08-21T10:13:03;6.67;;;2.87;;
12110;SDS011;6119;52.372;8.990;2022-08-21T10:16:02;7.03;;;1.90;;
12110;SDS011;6119;52.372;8.990;2022-08-21T10:19:01;7.53;;;2.33;;
12110;SDS011;6119;52.372;8.990;2022-08-21T10:21:59;4.53;;;2.37;;
12110;SDS011;6119;52.372;8.990;2022-08-21T10:24:55;5.40;;;2.20;;
12110;SDS011;6119;52.372;8.990;2022-08-21T10:27:51;7.40;;;2.20;;
12110;SDS011;6119;52.372;8.990;2022-08-21T10:30:45;6.30;;;2.00;;
12110;SDS011;6119;52.372;8.990;2022-08-21T10:33:37;5.80;;;1.97;;
12110;SDS011;6119;52.372;8.990;2022-08-21T10:36:32;5.47;;;1.80;;
12110;SDS011;6119;52.372;8.990;2022-08-21T10:39:24;6.13;;;2.17;;
12110;SDS011;6119;52.372;8.990;2022-08-21T10:42:33;4.60;;;1.77;;
12110;SDS011;6119;52.372;8.990;2022-08-21T10:45:29;8.53;;;1.90;;
12110;SDS011;6119;52.372;8.990;2022-08-21T10:48:25;4.90;;;2.03;;
12110;SDS011;6119;52.372;8.990;2022-08-21T10:51:19;3.93;;;1.93;;
12110;SDS011;6119;52.372;8.990;2022-08-21T10:54:15;6.63;;;2.10;;
12110;SDS011;6119;52.372;8.990;2022-08-21T10:57:11;6.60;;;2.10;;
12110;SDS011;6119;52.372;8.990;2022-08-21T11:00:18;5.17;;;2.33;;
12110;SDS011;6119;52.372;8.990;2022-08-21T11:03:10;4.90;;;2.23;;
12110;SDS011;6119;52.372;8.990;2022-08-21T11:06:00;3.70;;;1.80;;
12110;SDS011;6119;52.372;8.990;2022-08-21T11:08:51;6.37;;;1.87;;
12110;SDS011;6119;52.372;8.990;2022-08-21T11:11:45;5.37;;;1.80;;
12110;SDS011;6119;52.372;8.990;2022-08-21T11:14:55;6.60;;;2.10;;
12110;SDS011;6119;52.372;8.990;2022-08-21T11:17:49;4.93;;;2.10;;
12110;SDS011;6119;52.372;8.990;2022-08-21T11:20:46;6.40;;;1.90;;
12110;SDS011;6119;52.372;8.990;2022-08-21T11:23:39;3.80;;;1.60;;
12110;SDS011;6119;52.372;8.990;2022-08-21T11:26:32;4.70;;;1.80;;
12110;SDS011;6119;52.372;8.990;2022-08-21T11:29:24;6.27;;;2.23;;
12110;SDS011;6119;52.372;8.990;2022-08-21T11:35:33;3.10;;;2.00;;
12110;SDS011;6119;52.372;8.990;2022-08-21T11:38:26;2.97;;;1.80;;
12110;SDS011;6119;52.372;8.990;2022-08-21T11:41:22;5.53;;;2.03;;
12110;SDS011;6119;52.372;8.990;2022-08-21T11:44:15;6.00;;;2.33;;
12110;SDS011;6119;52.372;8.990;2022-08-21T11:47:11;9.43;;;2.20;;
12110;SDS011;6119;52.372;8.990;2022-08-21T11:50:04;6.83;;;2.50;;
12110;SDS011;6119;52.372;8.990;2022-08-21T11:53:20;7.77;;;2.37;;
12110;SDS011;6119;52.372;8.990;2022-08-21T11:56:14;2.73;;;2.07;;
12110;SDS011;6119;52.372;8.990;2022-08-21T11:59:06;3.60;;;2.33;;
12110;SDS011;6119;52.372;8.990;2022-08-21T12:01:57;8.30;;;1.90;;
12110;SDS011;6119;52.372;8.990;2022-08-21T12:04:45;2.97;;;2.40;;
12110;SDS011;6119;52.372;8.990;2022-08-21T12:07:35;6.17;;;2.37;;
12110;SDS011;6119;52.372;8.990;2022-08-21T12:10:30;4.03;;;2.20;;
12110;SDS011;6119;52.372;8.990;2022-08-21T12:13:22;6.53;;;2.33;;
12110;SDS011;6119;52.372;8.990;2022-08-21T12:16:29;4.93;;;2.53;;
12110;SDS011;6119;52.372;8.990;2022-08-21T12:19:27;6.30;;;2.27;;
12110;SDS011;6119;52.372;8.990;2022-08-21T12:22:16;7.03;;;2.80;;
12110;SDS011;6119;52.372;8.990;2022-08-21T12:25:03;5.37;;;2.60;;
12110;SDS011;6119;52.372;8.990;2022-08-21T12:28:01;3.70;;;2.47;;
12110;SDS011;6119;52.372;8.990;2022-08-21T12:30:53;4.47;;;2.30;;
12110;SDS011;6119;52.372;8.990;2022-08-21T12:33:42;5.97;;;2.93;;
12110;SDS011;6119;52.372;8.990;2022-08-21T12:36:39;8.67;;;2.80;;
12110;SDS011;6119;52.372;8.990;2022-08-21T12:39:30;3.80;;;2.60;;
12110;SDS011;6119;52.372;8.990;2022-08-21T12:42:20;4.83;;;3.17;;
12110;SDS011;6119;52.372;8.990;2022-08-21T12:45:14;4.10;;;2.90;;
12110;SDS011;6119;52.372;8.990;2022-08-21T12:48:04;6.17;;;3.37;;
12110;SDS011;6119;52.372;8.990;2022-08-21T12:50:57;5.60;;;3.07;;
12110;SDS011;6119;52.372;8.990;2022-08-21T12:53:53;9.77;;;3.07;;
12110;SDS011;6119;52.372;8.990;2022-08-21T12:56:41;3.70;;;2.93;;
12110;SDS011;6119;52.372;8.990;2022-08-21T12:59:28;3.10;;;2.80;;
12110;SDS011;6119;52.372;8.990;2022-08-21T13:02:18;3.37;;;2.50;;
12110;SDS011;6119;52.372;8.990;2022-08-21T13:05:08;6.60;;;2.97;;
12110;SDS011;6119;52.372;8.990;2022-08-21T13:08:02;6.13;;;2.77;;
12110;SDS011;6119;52.372;8.990;2022-08-21T13:13:39;4.53;;;2.50;;
12110;SDS011;6119;52.372;8.990;2022-08-21T13:16:34;5.90;;;3.07;;
12110;SDS011;6119;52.372;8.990;2022-08-21T13:19:21;5.23;;;2.90;;
12110;SDS011;6119;52.372;8.990;2022-08-21T13:22:12;6.37;;;2.83;;
12110;SDS011;6119;52.372;8.990;2022-08-21T13:25:19;5.67;;;2.70;;
12110;SDS011;6119;52.372;8.990;2022-08-21T13:28:11;5.37;;;2.83;;
12110;SDS011;6119;52.372;8.990;2022-08-21T13:30:59;4.43;;;2.80;;
12110;SDS011;6119;52.372;8.990;2022-08-21T13:33:47;3.93;;;2.50;;
12110;SDS011;6119;52.372;8.990;2022-08-21T13:36:37;5.83;;;3.07;;
12110;SDS011;6119;52.372;8.990;2022-08-21T13:39:26;5.43;;;2.47;;
12110;SDS011;6119;52.372;8.990;2022-08-21T13:42:13;6.03;;;3.10;;
12110;SDS011;6119;52.372;8.990;2022-08-21T13:44:59;6.10;;;2.77;;
12110;SDS011;6119;52.372;8.990;2022-08-21T13:47:46;4.50;;;2.70;;
12110;SDS011;6119;52.372;8.990;2022-08-21T13:50:33;4.10;;;2.60;;
12110;SDS011;6119;52.372;8.990;2022-08-21T13:53:31;5.77;;;3.07;;
12110;SDS011;6119;52.372;8.990;2022-08-21T13:56:24;8.47;;;3.03;;
12110;SDS011;6119;52.372;8.990;2022-08-21T13:59:23;4.83;;;3.03;;
12110;SDS011;6119;52.372;8.990;2022-08-21T14:02:12;4.70;;;2.87;;
12110;SDS011;6119;52.372;8.990;2022-08-21T14:05:02;6.50;;;3.10;;
12110;SDS011;6119;52.372;8.990;2022-08-21T14:07:49;6.67;;;3.00;;
12110;SDS011;6119;52.372;8.990;2022-08-21T14:10:44;4.40;;;2.80;;
12110;SDS011;6119;52.372;8.990;2022-08-21T14:13:41;6.03;;;3.13;;
12110;SDS011;6119;52.372;8.990;2022-08-21T14:16:41;4.80;;;3.37;;
12110;SDS011;6119;52.372;8.990;2022-08-21T14:19:35;3.63;;;3.03;;
12110;SDS011;6119;52.372;8.990;2022-08-21T14:22:30;5.13;;;3.20;;
12110;SDS011;6119;52.372;8.990;2022-08-21T14:25:29;6.87;;;2.80;;
12110;SDS011;6119;52.372;8.990;2022-08-21T14:28:30;6.03;;;3.40;;
12110;SDS011;6119;52.372;8.990;2022-08-21T14:31:19;4.50;;;3.07;;
12110;SDS011;6119;52.372;8.990;2022-08-21T14:34:07;4.60;;;2.90;;
12110;SDS011;6119;52.372;8.990;2022-08-21T14:37:03;5.90;;;3.03;;
12110;SDS011;6119;52.372;8.990;2022-08-21T14:39:50;5.80;;;3.80;;
12110;SDS011;6119;52.372;8.990;2022-08-21T14:42:37;6.13;;;2.97;;
12110;SDS011;6119;52.372;8.990;2022-08-21T14:45:25;7.53;;;3.30;;
12110;SDS011;6119;52.372;8.990;2022-08-21T14:48:14;6.47;;;3.13;;
12110;SDS011;6119;52.372;8.990;2022-08-21T14:51:00;4.83;;;2.83;;
12110;SDS011;6119;52.372;8.990;2022-08-21T14:53:47;5.97;;;3.13;;
12110;SDS011;6119;52.372;8.990;2022-08-21T14:56:34;4.23;;;3.23;;
12110;SDS011;6119;52.372;8.990;2022-08-21T14:59:21;7.17;;;3.47;;
12110;SDS011;6119;52.372;8.990;2022-08-21T15:02:09;6.53;;;3.43;;
12110;SDS011;6119;52.372;8.990;2022-08-21T15:04:56;5.90;;;2.70;;
12110;SDS011;6119;52.372;8.990;2022-08-21T15:07:43;3.60;;;2.77;;
12110;SDS011;6119;52.372;8.990;2022-08-21T15:10:30;4.33;;;2.90;;
12110;SDS011;6119;52.372;8.990;2022-08-21T15:13:32;4.43;;;2.60;;
12110;SDS011;6119;52.372;8.990;2022-08-21T15:16:19;5.83;;;3.20;;
12110;SDS011;6119;52.372;8.990;2022-08-21T15:19:07;3.70;;;2.63;;
12110;SDS011;6119;52.372;8.990;2022-08-21T15:21:54;5.03;;;3.00;;
12110;SDS011;6119;52.372;8.990;2022-08-21T15:24:40;6.97;;;2.80;;
12110;SDS011;6119;52.372;8.990;2022-08-21T15:27:27;3.80;;;2.30;;
12110;SDS011;6119;52.372;8.990;2022-08-21T15:30:14;4.80;;;2.20;;
12110;SDS011;6119;52.372;8.990;2022-08-21T15:33:01;4.63;;;1.70;;
12110;SDS011;6119;52.372;8.990;2022-08-21T15:35:49;4.30;;;2.53;;
12110;SDS011;6119;52.372;8.990;2022-08-21T15:38:36;3.33;;;1.80;;
12110;SDS011;6119;52.372;8.990;2022-08-21T15:41:22;3.33;;;1.97;;
12110;SDS011;6119;52.372;8.990;2022-08-21T15:44:09;3.67;;;1.87;;
12110;SDS011;6119;52.372;8.990;2022-08-21T15:46:58;5.17;;;2.50;;
12110;SDS011;6119;52.372;8.990;2022-08-21T15:49:45;3.23;;;1.90;;
12110;SDS011;6119;52.372;8.990;2022-08-21T15:52:35;2.53;;;1.80;;
12110;SDS011;6119;52.372;8.990;2022-08-21T15:55:22;2.53;;;1.80;;
12110;SDS011;6119;52.372;8.990;2022-08-21T15:58:11;9.80;;;2.47;;
12110;SDS011;6119;52.372;8.990;2022-08-21T16:01:00;5.43;;;1.80;;
12110;SDS011;6119;52.372;8.990;2022-08-21T16:03:48;4.87;;;2.00;;
12110;SDS011;6119;52.372;8.990;2022-08-21T16:06:36;5.03;;;2.80;;
12110;SDS011;6119;52.372;8.990;2022-08-21T16:09:39;5.50;;;2.87;;
12110;SDS011;6119;52.372;8.990;2022-08-21T16:12:27;7.17;;;2.30;;
12110;SDS011;6119;52.372;8.990;2022-08-21T16:15:16;5.20;;;2.10;;
12110;SDS011;6119;52.372;8.990;2022-08-21T16:18:04;1.70;;;1.17;;
12110;SDS011;6119;52.372;8.990;2022-08-21T16:20:51;2.03;;;1.60;;
12110;SDS011;6119;52.372;8.990;2022-08-21T16:23:37;2.47;;;1.47;;
12110;SDS011;6119;52.372;8.990;2022-08-21T16:26:26;3.70;;;1.50;;
12110;SDS011;6119;52.372;8.990;2022-08-21T16:29:14;5.73;;;1.80;;
12110;SDS011;6119;52.372;8.990;2022-08-21T16:32:02;2.13;;;1.17;;
12110;SDS011;6119;52.372;8.990;2022-08-21T16:34:49;2.60;;;1.33;;
12110;SDS011;6119;52.372;8.990;2022-08-21T16:37:38;5.93;;;1.60;;
12110;SDS011;6119;52.372;8.990;2022-08-21T16:40:25;3.80;;;1.27;;
12110;SDS011;6119;52.372;8.990;2022-08-21T16:43:14;1.93;;;1.47;;
12110;SDS011;6119;52.372;8.990;2022-08-21T16:46:01;2.23;;;1.37;;
12110;SDS011;6119;52.372;8.990;2022-08-21T16:48:48;5.93;;;1.83;;
12110;SDS011;6119;52.372;8.990;2022-08-21T16:51:34;2.67;;;1.43;;
12110;SDS011;6119;52.372;8.990;2022-08-21T16:54:22;2.40;;;1.40;;
12110;SDS011;6119;52.372;8.990;2022-08-21T16:57:09;2.13;;;1.40;;
12110;SDS011;6119;52.372;8.990;2022-08-21T16:59:57;4.83;;;1.50;;
12110;SDS011;6119;52.372;8.990;2022-08-21T17:02:44;1.67;;;1.37;;
12110;SDS011;6119;52.372;8.990;2022-08-21T17:05:33;5.60;;;1.60;;
12110;SDS011;6119;52.372;8.990;2022-08-21T17:08:19;3.20;;;1.70;;
12110;SDS011;6119;52.372;8.990;2022-08-21T17:11:06;2.93;;;1.30;;
12110;SDS011;6119;52.372;8.990;2022-08-21T17:14:17;2.10;;;1.37;;
12110;SDS011;6119;52.372;8.990;2022-08-21T17:17:07;2.70;;;1.30;;
12110;SDS011;6119;52.372;8.990;2022-08-21T17:19:55;6.17;;;1.70;;
12110;SDS011;6119;52.372;8.990;2022-08-21T17:22:41;5.13;;;1.47;;
12110;SDS011;6119;52.372;8.990;2022-08-21T17:25:27;3.30;;;1.80;;